Time;durP1;ratioP1;P1;durP2;ratioP2;P2;SDS_P1;SDS_P2;PMS_P1;PMS_P2;Temp;Humidity;BMP_temperature;BMP_pressure;BME280_temperature;BME280_humidity;BME280_pressure;Samples;Min_cycle;Max_cycle;Signal;HPM_P1;HPM_P2
2023/05/27 00:00:19;;;;;;;;;;;;;;;21.59;53.61;99880.53;4429872;32;34177;-82
2023/05/27 00:02:48;;;;;;;;;;;;;;;21.63;53.57;99871.50;4429318;32;34605;-83
2023/05/27 00:05:17;;;;;;;;;;;;;;;21.14;54.96;99876.78;4436248;32;33290;-82
2023/05/27 00:07:46;;;;;;;;;;;;;;;21.37;53.97;99877.34;4432011;32;33811;-83
2023/05/27 00:10:15;;;;;;;;;;;;;;;21.50;53.96;99879.25;4431192;32;33923;-84
2023/05/27 00:12:44;;;;;;;;;;;;;;;21.51;53.91;99872.19;4431056;32;34183;-84
2023/05/27 00:15:12;;;;;;;;;;;;;;;21.43;53.98;99869.97;4431190;32;32859;-83
2023/05/27 00:17:42;;;;;;;;;;;;;;;21.44;54.04;99869.03;4434000;32;33955;-82
2023/05/27 00:20:12;;;;;;;;;;;;;;;21.33;54.19;99862.59;4430366;32;34783;-82
2023/05/27 00:22:41;;;;;;;;;;;;;;;21.27;54.37;99864.66;4430532;32;34378;-84
2023/05/27 00:25:11;;;;;;;;;;;;;;;21.20;54.69;99873.00;4429857;32;33729;-85
2023/05/27 00:27:40;;;;;;;;;;;;;;;21.11;54.80;99869.06;4435344;32;33722;-83
2023/05/27 00:30:09;;;;;;;;;;;;;;;21.16;54.76;99869.66;4430468;32;34263;-82
2023/05/27 00:32:37;;;;;;;;;;;;;;;21.09;54.96;99869.16;4432445;32;33434;-84
2023/05/27 00:35:09;;;;;;;;;;;;;;;21.15;54.78;99862.69;4431107;32;33709;-82
2023/05/27 00:37:38;;;;;;;;;;;;;;;21.21;54.41;99859.69;4433045;32;34219;-83
2023/05/27 00:40:07;;;;;;;;;;;;;;;20.97;55.31;99861.91;4436136;32;33645;-83
2023/05/27 00:42:37;;;;;;;;;;;;;;;20.92;55.42;99863.91;4431053;32;34088;-82
2023/05/27 00:45:07;;;;;;;;;;;;;;;21.01;55.14;99854.66;4429221;32;33859;-82
2023/05/27 00:47:35;;;;;;;;;;;;;;;20.92;55.42;99857.78;4429946;32;33876;-81
2023/05/27 00:50:05;;;;;;;;;;;;;;;20.82;55.93;99860.91;4435440;32;34150;-82
2023/05/27 00:52:34;;;;;;;;;;;;;;;20.79;55.77;99860.22;4431083;32;35206;-82
2023/05/27 00:55:02;;;;;;;;;;;;;;;20.72;56.20;99867.59;4430798;32;32977;-82
2023/05/27 00:57:31;;;;;;;;;;;;;;;20.73;56.18;99866.69;4430782;32;33997;-83
2023/05/27 01:00:02;;;;;;;;;;;;;;;20.93;54.84;99864.78;4436531;32;34099;-83
2023/05/27 01:02:30;;;;;;;;;;;;;;;20.71;55.22;99862.41;4429148;32;34298;-83
2023/05/27 01:04:59;;;;;;;;;;;;;;;20.60;56.05;99858.53;4431491;32;33288;-82
2023/05/27 01:07:29;;;;;;;;;;;;;;;20.23;56.44;99863.03;4429076;32;34235;-84
2023/05/27 01:09:59;;;;;;;;;;;;;;;20.35;55.88;99858.09;4432957;32;33728;-84
2023/05/27 01:12:28;;;;;;;;;;;;;;;20.98;54.33;99862.75;4435333;32;33639;-83
2023/05/27 01:14:57;;;;;;;;;;;;;;;21.05;54.17;99859.69;4430840;32;34593;-84
2023/05/27 01:17:27;;;;;;;;;;;;;;;20.95;54.81;99863.75;4430868;32;34660;-83
2023/05/27 01:19:59;;;;;;;;;;;;;;;21.15;54.34;99857.41;4429734;32;33082;-82
2023/05/27 01:22:29;;;;;;;;;;;;;;;21.25;53.63;99855.97;4433139;32;33052;-82
2023/05/27 01:24:58;;;;;;;;;;;;;;;21.14;53.40;99852.19;4430775;32;33076;-83
2023/05/27 01:27:26;;;;;;;;;;;;;;;20.88;54.30;99849.19;4429195;32;34851;-84
2023/05/27 01:29:56;;;;;;;;;;;;;;;21.13;53.80;99848.72;4430715;32;34773;-83
2023/05/27 01:32:29;;;;;;;;;;;;;;;21.23;53.73;99849.06;4426674;32;33393;-84
2023/05/27 01:34:58;;;;;;;;;;;;;;;21.22;53.40;99850.88;4434224;32;33471;-84
2023/05/27 01:37:29;;;;;;;;;;;;;;;21.01;54.49;99847.59;4430471;32;34505;-83
2023/05/27 01:40:16;;;;;;;;;;;;;;;20.98;54.43;99847.75;4430891;32;34656;-83
2023/05/27 01:42:46;;;;;;;;;;;;;;;21.12;54.38;99848.78;4434345;32;33479;-84
2023/05/27 01:45:15;;;;;;;;;;;;;;;21.13;53.50;99846.09;4430393;32;33739;-83
2023/05/27 01:47:43;;;;;;;;;;;;;;;20.42;55.49;99846.31;4435279;32;34082;-83
2023/05/27 01:50:12;;;;;;;;;;;;;;;20.73;54.85;99844.72;4431218;32;33975;-84
2023/05/27 01:52:42;;;;;;;;;;;;;;;20.98;53.83;99841.66;4431421;32;33630;-82
2023/05/27 01:55:12;;;;;;;;;;;;;;;21.02;54.01;99843.16;4430800;32;33122;-84
2023/05/27 01:57:41;;;;;;;;;;;;;;;20.62;55.05;99846.13;4434904;32;31811;-83
2023/05/27 02:00:10;;;;;;;;;;;;;;;20.65;54.92;99845.12;4430246;32;34038;-82
2023/05/27 02:02:44;;;;;;;;;;;;;;;20.81;54.52;99838.12;4425763;32;33988;-83
2023/05/27 02:05:14;;;;;;;;;;;;;;;20.71;54.88;99838.66;4431438;32;33765;-83
2023/05/27 02:07:43;;;;;;;;;;;;;;;20.59;55.37;99846.31;4429395;32;33728;-83
2023/05/27 02:10:12;;;;;;;;;;;;;;;20.43;55.90;99837.44;4435259;32;35009;-82
2023/05/27 02:12:41;;;;;;;;;;;;;;;20.20;56.75;99842.13;4432151;32;34236;-83
2023/05/27 02:15:10;;;;;;;;;;;;;;;20.22;56.84;99835.00;4424382;32;32537;-82
2023/05/27 02:17:38;;;;;;;;;;;;;;;20.48;55.49;99838.06;4430886;32;34594;-83
2023/05/27 02:20:07;;;;;;;;;;;;;;;20.48;55.07;99839.84;4436039;32;32930;-82
2023/05/27 02:22:39;;;;;;;;;;;;;;;20.47;54.66;99841.66;4431531;32;34864;-82
2023/05/27 02:25:09;;;;;;;;;;;;;;;20.53;54.21;99833.41;4429921;32;33975;-82
2023/05/27 02:27:41;;;;;;;;;;;;;;;20.50;55.25;99843.25;4430846;32;33914;-82
2023/05/27 02:30:11;;;;;;;;;;;;;;;20.50;54.61;99838.00;4429546;32;34917;-82
2023/05/27 02:32:40;;;;;;;;;;;;;;;20.29;55.53;99838.16;4436467;32;33832;-82
2023/05/27 02:35:09;;;;;;;;;;;;;;;20.42;55.69;99841.87;4430044;32;32928;-82
2023/05/27 02:37:37;;;;;;;;;;;;;;;20.33;55.20;99842.34;4430678;32;33863;-83
2023/05/27 02:40:08;;;;;;;;;;;;;;;20.28;55.78;99836.47;4422604;32;34983;-81
2023/05/27 02:42:38;;;;;;;;;;;;;;;20.04;56.76;99844.66;4434490;32;33272;-83
2023/05/27 02:45:07;;;;;;;;;;;;;;;20.10;56.79;99842.66;4434090;32;32923;-83
2023/05/27 02:47:35;;;;;;;;;;;;;;;19.99;57.19;99838.78;4434015;32;33780;-83
2023/05/27 02:50:04;;;;;;;;;;;;;;;19.98;56.72;99839.72;4430009;32;34038;-82
2023/05/27 02:52:33;;;;;;;;;;;;;;;19.93;57.37;99844.31;4434873;32;34817;-82
2023/05/27 02:55:02;;;;;;;;;;;;;;;19.94;56.99;99840.78;4429686;32;32861;-82
2023/05/27 02:57:31;;;;;;;;;;;;;;;19.78;57.62;99847.72;4431208;32;34636;-82
2023/05/27 03:00:04;;;;;;;;;;;;;;;19.93;57.48;99841.69;4416050;32;34095;-84
2023/05/27 03:02:33;;;;;;;;;;;;;;;19.89;57.37;99845.44;4428801;32;34634;-83
2023/05/27 03:05:02;;;;;;;;;;;;;;;19.66;58.19;99849.13;4434942;32;33043;-84
2023/05/27 03:07:31;;;;;;;;;;;;;;;19.72;58.04;99850.66;4429742;32;35493;-83
2023/05/27 03:09:59;;;;;;;;;;;;;;;19.79;56.92;99850.28;4430685;32;34830;-82
2023/05/27 03:12:28;;;;;;;;;;;;;;;19.86;56.98;99849.97;4429661;32;34730;-83
2023/05/27 03:14:56;;;;;;;;;;;;;;;19.93;56.91;99852.22;4409698;32;804725;-83
2023/05/27 03:17:27;;;;;;;;;;;;;;;19.58;57.24;99849.50;4431213;32;32802;-82
2023/05/27 03:19:56;;;;;;;;;;;;;;;19.88;55.14;99851.59;4429504;32;35173;-82
2023/05/27 03:22:25;;;;;;;;;;;;;;;19.94;56.05;99846.06;4429368;32;34127;-82
2023/05/27 03:24:53;;;;;;;;;;;;;;;20.08;56.14;99849.75;4426253;32;32874;-83
2023/05/27 03:27:22;;;;;;;;;;;;;;;20.26;55.18;99854.13;4426197;32;33351;-83
2023/05/27 03:29:51;;;;;;;;;;;;;;;20.10;54.99;99854.03;4430332;32;34313;-83
2023/05/27 03:32:19;;;;;;;;;;;;;;;20.14;55.30;99854.75;4428679;32;33612;-83
2023/05/27 03:34:50;;;;;;;;;;;;;;;20.30;55.43;99860.09;4429811;32;33382;-83
2023/05/27 03:37:18;;;;;;;;;;;;;;;20.25;55.52;99861.19;4433843;32;33363;-83
2023/05/27 03:39:47;;;;;;;;;;;;;;;20.04;55.99;99864.87;4428781;32;32201;-83
2023/05/27 03:42:16;;;;;;;;;;;;;;;20.11;56.23;99865.44;4431120;32;33976;-84
2023/05/27 03:44:45;;;;;;;;;;;;;;;20.25;56.23;99870.87;4430279;32;34054;-82
2023/05/27 03:47:13;;;;;;;;;;;;;;;20.04;57.30;99865.72;4436367;32;34192;-83
2023/05/27 03:49:44;;;;;;;;;;;;;;;20.16;56.47;99859.00;4432509;32;33888;-84
2023/05/27 03:52:14;;;;;;;;;;;;;;;20.37;55.72;99867.62;4429518;32;34695;-82
2023/05/27 03:54:42;;;;;;;;;;;;;;;20.47;55.57;99868.00;4429138;32;32983;-82
2023/05/27 03:57:11;;;;;;;;;;;;;;;20.71;54.80;99858.00;4426014;32;34093;-84
2023/05/27 03:59:40;;;;;;;;;;;;;;;20.66;55.40;99860.03;4438576;32;32436;-83
2023/05/27 04:02:08;;;;;;;;;;;;;;;20.81;55.32;99863.63;4442356;32;34189;-83
2023/05/27 04:04:37;;;;;;;;;;;;;;;20.89;54.26;99864.91;4433579;32;33005;-83
2023/05/27 04:07:06;;;;;;;;;;;;;;;20.81;53.74;99864.50;4431303;32;33683;-83
2023/05/27 04:09:35;;;;;;;;;;;;;;;21.01;53.31;99865.22;4436149;32;34104;-82
2023/05/27 04:12:07;;;;;;;;;;;;;;;20.65;54.29;99868.84;4439577;32;34767;-83
2023/05/27 04:14:36;;;;;;;;;;;;;;;21.36;51.82;99865.06;4435924;32;33353;-83
2023/05/27 04:17:04;;;;;;;;;;;;;;;21.67;51.20;99862.50;4430455;32;33781;-83
2023/05/27 04:19:34;;;;;;;;;;;;;;;21.92;50.66;99861.09;4431838;32;34806;-84
2023/05/27 04:22:02;;;;;;;;;;;;;;;22.15;50.73;99868.50;4438087;32;34218;-83
2023/05/27 04:24:32;;;;;;;;;;;;;;;22.65;48.52;99860.34;4432770;32;33848;-83
2023/05/27 04:27:04;;;;;;;;;;;;;;;23.28;46.75;99869.72;4430021;32;33356;-84
2023/05/27 04:29:33;;;;;;;;;;;;;;;23.39;46.98;99877.84;4435959;32;33273;-83
2023/05/27 04:32:01;;;;;;;;;;;;;;;24.26;44.72;99872.19;4437621;32;34628;-83
2023/05/27 04:34:30;;;;;;;;;;;;;;;24.78;42.83;99874.91;4434377;32;33192;-83
2023/05/27 04:37:00;;;;;;;;;;;;;;;25.16;42.56;99879.34;4431520;32;35383;-83
2023/05/27 04:39:29;;;;;;;;;;;;;;;25.32;42.16;99885.25;4434286;32;35291;-83
2023/05/27 04:41:58;;;;;;;;;;;;;;;25.70;41.56;99886.97;4434881;32;34803;-85
2023/05/27 04:44:29;;;;;;;;;;;;;;;26.28;40.48;99884.50;4441057;32;33157;-83
2023/05/27 04:46:58;;;;;;;;;;;;;;;26.53;40.29;99887.03;4437816;32;34341;-83
2023/05/27 04:49:27;;;;;;;;;;;;;;;26.83;38.97;99888.28;4432452;32;33876;-83
2023/05/27 04:51:56;;;;;;;;;;;;;;;26.83;38.46;99890.94;4431085;32;34181;-83
2023/05/27 04:54:25;;;;;;;;;;;;;;;27.16;37.57;99892.78;4436265;32;33787;-83
2023/05/27 04:56:55;;;;;;;;;;;;;;;27.35;37.71;99891.31;4430738;32;33994;-83
2023/05/27 04:59:29;;;;;;;;;;;;;;;27.65;36.91;99893.34;4436317;32;34893;-84
2023/05/27 05:02:09;;;;;;;;;;;;;;;27.62;36.93;99886.44;4434213;32;33469;-83
2023/05/27 05:04:41;;;;;;;;;;;;;;;27.87;36.40;99890.62;4431641;32;33469;-83
2023/05/27 05:07:10;;;;;;;;;;;;;;;26.41;36.80;99887.94;4437134;32;34904;-84
2023/05/27 05:09:39;;;;;;;;;;;;;;;26.40;36.87;99894.19;4430591;32;34201;-83
2023/05/27 05:12:08;;;;;;;;;;;;;;;26.36;36.73;99892.72;4419278;32;34667;-83
2023/05/27 05:14:37;;;;;;;;;;;;;;;25.34;38.33;99893.97;4430353;32;33012;-83
2023/05/27 05:17:10;;;;;;;;;;;;;;;25.29;38.88;99901.44;4436295;32;34011;-83
2023/05/27 05:19:38;;;;;;;;;;;;;;;25.45;38.11;99901.19;4431630;32;34269;-83
2023/05/27 05:22:07;;;;;;;;;;;;;;;25.72;38.27;99903.66;4429314;32;34167;-83
2023/05/27 05:24:36;;;;;;;;;;;;;;;25.03;39.11;99893.47;4430436;32;33049;-83
2023/05/27 05:27:05;;;;;;;;;;;;;;;23.85;43.15;99912.03;4433213;32;34492;-83
2023/05/27 05:29:36;;;;;;;;;;;;;;;25.10;38.54;99901.84;4437532;32;34133;-84
2023/05/27 05:32:05;;;;;;;;;;;;;;;25.10;39.88;99912.47;4432576;32;34150;-84
2023/05/27 05:34:35;;;;;;;;;;;;;;;24.57;40.99;99903.75;4429375;32;33610;-84
2023/05/27 05:37:04;;;;;;;;;;;;;;;23.95;43.01;99917.56;4436771;32;34614;-82
2023/05/27 05:39:33;;;;;;;;;;;;;;;25.04;40.34;99908.44;4451185;32;35464;-83
2023/05/27 05:42:02;;;;;;;;;;;;;;;25.44;39.53;99913.62;4435588;32;34176;-83
2023/05/27 05:44:31;;;;;;;;;;;;;;;25.43;39.11;99919.03;4437303;32;33088;-83
2023/05/27 05:47:00;;;;;;;;;;;;;;;25.03;39.83;99917.37;4429984;32;33961;-83
2023/05/27 05:49:28;;;;;;;;;;;;;;;25.00;38.88;99920.22;4433961;32;34014;-83
2023/05/27 05:52:01;;;;;;;;;;;;;;;25.06;39.76;99917.16;4436349;32;33661;-82
2023/05/27 05:54:29;;;;;;;;;;;;;;;24.84;40.66;99924.87;4431572;32;32506;-84
2023/05/27 05:57:00;;;;;;;;;;;;;;;25.03;39.77;99919.16;4432442;32;34348;-83
2023/05/27 05:59:29;;;;;;;;;;;;;;;24.95;39.79;99926.81;4439329;32;33687;-83
2023/05/27 06:01:57;;;;;;;;;;;;;;;24.39;40.52;99930.53;4436572;32;33782;-83
2023/05/27 06:04:26;;;;;;;;;;;;;;;24.50;40.64;99929.84;4432610;32;33255;-83
2023/05/27 06:06:55;;;;;;;;;;;;;;;24.82;39.68;99932.13;4428546;32;34067;-82
2023/05/27 06:09:29;;;;;;;;;;;;;;;24.79;40.21;99938.50;4434065;32;33797;-84
2023/05/27 06:12:00;;;;;;;;;;;;;;;24.73;39.97;99938.91;4446341;32;33711;-83
2023/05/27 06:14:29;;;;;;;;;;;;;;;24.34;40.06;99945.06;4422895;32;32964;-83
2023/05/27 06:16:58;;;;;;;;;;;;;;;23.92;41.11;99944.25;4429023;32;33731;-84
2023/05/27 06:19:27;;;;;;;;;;;;;;;23.49;42.48;99950.47;4431273;32;34516;-84
2023/05/27 06:21:56;;;;;;;;;;;;;;;23.43;42.77;99953.47;4428516;32;34200;-83
2023/05/27 06:24:25;;;;;;;;;;;;;;;22.77;45.95;99957.47;4436164;32;33174;-84
2023/05/27 06:26:56;;;;;;;;;;;;;;;22.86;43.77;99958.69;4430953;32;33828;-84
2023/05/27 06:29:24;;;;;;;;;;;;;;;22.49;44.19;99961.72;4431524;32;33464;-84
2023/05/27 06:31:54;;;;;;;;;;;;;;;23.07;42.25;99954.78;4430179;32;35067;-83
2023/05/27 06:34:23;;;;;;;;;;;;;;;23.26;42.70;99966.91;4438329;32;34015;-82
2023/05/27 06:36:53;;;;;;;;;;;;;;;23.35;42.66;99966.34;4437659;32;34806;-82
2023/05/27 06:39:22;;;;;;;;;;;;;;;23.36;41.63;99968.88;4438470;32;34624;-83
2023/05/27 06:41:50;;;;;;;;;;;;;;;23.00;42.73;99972.84;4435342;32;35414;-83
2023/05/27 06:44:22;;;;;;;;;;;;;;;23.25;41.50;99966.06;4429669;32;33942;-83
2023/05/27 06:46:52;;;;;;;;;;;;;;;23.70;41.09;99972.06;4437352;32;34752;-83
2023/05/27 06:49:22;;;;;;;;;;;;;;;23.31;42.23;99970.97;4434796;32;34302;-82
2023/05/27 06:51:50;;;;;;;;;;;;;;;23.66;40.72;99973.22;4434442;32;33795;-83
2023/05/27 06:54:19;;;;;;;;;;;;;;;23.17;41.57;99977.13;4434976;32;33050;-84
2023/05/27 06:56:48;;;;;;;;;;;;;;;23.24;41.81;99974.09;4437266;32;33732;-82
2023/05/27 06:59:21;;;;;;;;;;;;;;;23.66;39.53;99981.19;4436162;32;32581;-83
2023/05/27 07:01:51;;;;;;;;;;;;;;;23.38;39.86;99976.75;4435141;32;33470;-82
2023/05/27 07:04:20;;;;;;;;;;;;;;;22.80;41.52;99981.09;4432112;32;32733;-83
2023/05/27 07:06:48;;;;;;;;;;;;;;;23.26;39.75;99981.00;4432689;32;32080;-83
2023/05/27 07:09:17;;;;;;;;;;;;;;;23.28;40.28;99988.84;4435733;32;34850;-83
2023/05/27 07:11:46;;;;;;;;;;;;;;;23.08;40.20;99990.91;4433292;32;33611;-82
2023/05/27 07:14:15;;;;;;;;;;;;;;;22.77;40.80;99979.47;4430541;32;33031;-82
2023/05/27 07:16:45;;;;;;;;;;;;;;;23.14;40.28;99985.22;4430209;32;33997;-83
2023/05/27 07:19:14;;;;;;;;;;;;;;;23.36;39.82;99984.78;4435430;32;34120;-83
2023/05/27 07:21:43;;;;;;;;;;;;;;;23.16;40.17;99987.81;4434767;32;34405;-83
2023/05/27 07:24:12;;;;;;;;;;;;;;;23.26;39.74;99982.78;4429475;32;34056;-83
2023/05/27 07:26:41;;;;;;;;;;;;;;;23.11;40.24;99989.88;4428963;32;34606;-83
2023/05/27 07:29:10;;;;;;;;;;;;;;;23.41;39.95;99990.66;4431515;32;33842;-82
2023/05/27 07:31:41;;;;;;;;;;;;;;;23.28;40.75;99988.84;4438625;32;33809;-82
2023/05/27 07:34:11;;;;;;;;;;;;;;;23.89;39.48;99989.50;4427561;32;33918;-84
2023/05/27 07:36:40;;;;;;;;;;;;;;;24.10;39.61;99996.06;4431521;32;33307;-84
2023/05/27 07:39:09;;;;;;;;;;;;;;;23.66;40.08;99989.12;4431474;32;34755;-83
2023/05/27 07:41:37;;;;;;;;;;;;;;;23.26;40.94;99988.94;4435531;32;33727;-82
2023/05/27 07:44:06;;;;;;;;;;;;;;;23.89;39.38;99992.13;4430332;32;33098;-82
2023/05/27 07:46:38;;;;;;;;;;;;;;;22.38;41.81;99985.31;4430959;32;33573;-82
2023/05/27 07:49:07;;;;;;;;;;;;;;;22.62;41.19;99977.75;4429604;32;34539;-83
2023/05/27 07:51:40;;;;;;;;;;;;;;;24.04;38.69;99984.06;4439387;32;33798;-82
2023/05/27 07:54:10;;;;;;;;;;;;;;;24.06;39.24;99981.31;4438700;32;33411;-83
2023/05/27 07:56:39;;;;;;;;;;;;;;;24.24;38.47;99982.78;4438117;32;33973;-84
2023/05/27 07:59:08;;;;;;;;;;;;;;;24.88;37.56;99971.50;4436641;32;34613;-83
2023/05/27 08:01:36;;;;;;;;;;;;;;;24.58;38.74;99977.09;4436598;32;33902;-84
2023/05/27 08:04:05;;;;;;;;;;;;;;;25.07;37.75;99969.28;4437953;32;33930;-82
2023/05/27 08:06:53;;;;;;;;;;;;;;;24.96;37.22;99965.66;4439079;32;34970;-84
2023/05/27 08:09:22;;;;;;;;;;;;;;;23.68;39.49;99971.34;4433387;32;33195;-82
2023/05/27 08:11:53;;;;;;;;;;;;;;;24.08;39.28;99975.91;4439837;32;33568;-83
2023/05/27 08:14:24;;;;;;;;;;;;;;;24.49;38.55;99974.06;4435655;32;33409;-84
2023/05/27 08:16:54;;;;;;;;;;;;;;;24.79;37.73;99966.81;4439873;32;34520;-83
2023/05/27 08:19:22;;;;;;;;;;;;;;;25.01;36.06;99959.09;4438711;32;33650;-83
2023/05/27 08:21:51;;;;;;;;;;;;;;;24.67;36.37;99965.84;4432686;32;34583;-82
2023/05/27 08:24:22;;;;;;;;;;;;;;;24.95;37.16;99961.31;4428197;32;33219;-83
2023/05/27 08:26:51;;;;;;;;;;;;;;;25.05;36.00;99959.72;4436231;32;33971;-82
2023/05/27 08:29:20;;;;;;;;;;;;;;;24.90;36.49;99961.63;4444210;32;34722;-83
2023/05/27 08:31:51;;;;;;;;;;;;;;;24.52;37.56;99970.37;4431440;32;33076;-83
2023/05/27 08:34:20;;;;;;;;;;;;;;;24.17;38.08;99965.56;4434232;32;33093;-82
2023/05/27 08:36:49;;;;;;;;;;;;;;;23.91;38.35;99967.25;4430088;32;33915;-82
2023/05/27 08:39:18;;;;;;;;;;;;;;;24.83;37.13;99963.00;4434042;32;33695;-83
2023/05/27 08:41:48;;;;;;;;;;;;;;;24.86;36.05;99962.78;4428809;32;34329;-83
2023/05/27 08:44:16;;;;;;;;;;;;;;;24.84;36.64;99954.94;4428300;32;33493;-82
2023/05/27 08:46:50;;;;;;;;;;;;;;;25.23;35.76;99963.78;4429383;32;35005;-83
2023/05/27 08:49:19;;;;;;;;;;;;;;;24.86;36.63;99960.12;4438826;32;33981;-82
2023/05/27 08:51:48;;;;;;;;;;;;;;;25.45;35.62;99963.13;4432392;32;34877;-83
2023/05/27 08:54:19;;;;;;;;;;;;;;;25.43;35.08;99959.72;4432546;32;32760;-84
2023/05/27 08:56:49;;;;;;;;;;;;;;;24.45;37.38;99964.59;4432008;32;33912;-82
2023/05/27 08:59:18;;;;;;;;;;;;;;;24.56;36.78;99960.41;4432519;32;33849;-84
2023/05/27 09:01:47;;;;;;;;;;;;;;;24.72;36.16;99961.09;4436294;32;33059;-82
2023/05/27 09:04:16;;;;;;;;;;;;;;;25.16;35.48;99961.66;4430143;32;33314;-83
2023/05/27 09:06:44;;;;;;;;;;;;;;;24.41;37.26;99968.41;4431519;32;33734;-83
2023/05/27 09:09:13;;;;;;;;;;;;;;;25.22;35.23;99963.87;4429429;32;33765;-82
2023/05/27 09:11:42;;;;;;;;;;;;;;;25.36;35.73;99962.94;4435101;32;34678;-84
2023/05/27 09:14:20;;;;;;;;;;;;;;;25.41;34.81;99958.97;4424941;32;32723;-84
2023/05/27 09:16:48;;;;;;;;;;;;;;;25.92;34.24;99958.03;4425450;32;34369;-83
2023/05/27 09:19:20;;;;;;;;;;;;;;;26.12;32.76;99954.78;4424898;32;35050;-82
2023/05/27 09:21:49;;;;;;;;;;;;;;;25.75;34.87;99959.22;4431535;32;34336;-83
2023/05/27 09:24:17;;;;;;;;;;;;;;;25.95;34.00;99958.69;4442565;32;33069;-83
2023/05/27 09:26:46;;;;;;;;;;;;;;;26.20;32.91;99950.72;4431010;32;33540;-83
2023/05/27 09:29:19;;;;;;;;;;;;;;;25.51;33.88;99954.69;4431552;32;34356;-83
2023/05/27 09:31:47;;;;;;;;;;;;;;;25.45;34.90;99947.19;4433405;32;33086;-83
2023/05/27 09:34:16;;;;;;;;;;;;;;;25.82;34.83;99952.50;4438567;32;33865;-83
2023/05/27 09:36:45;;;;;;;;;;;;;;;25.75;34.37;99952.09;4432437;32;34827;-84
2023/05/27 09:39:18;;;;;;;;;;;;;;;25.37;35.75;99949.56;4434938;32;33798;-82
2023/05/27 09:41:50;;;;;;;;;;;;;;;26.22;35.68;99944.31;4431087;32;34780;-83
2023/05/27 09:44:20;;;;;;;;;;;;;;;26.93;32.94;99944.31;4437227;32;34051;-84
2023/05/27 09:46:49;;;;;;;;;;;;;;;26.34;33.98;99946.06;4441361;32;33981;-83
2023/05/27 09:49:17;;;;;;;;;;;;;;;26.69;32.81;99947.03;4433278;32;34455;-84
2023/05/27 09:51:47;;;;;;;;;;;;;;;25.91;33.48;99953.69;4429486;32;34315;-82
2023/05/27 09:54:18;;;;;;;;;;;;;;;25.95;34.15;99944.50;4433415;32;33299;-83
2023/05/27 09:56:47;;;;;;;;;;;;;;;25.17;34.64;99944.75;4435911;32;34054;-83
2023/05/27 09:59:15;;;;;;;;;;;;;;;25.59;33.54;99950.66;4431220;32;34487;-83
2023/05/27 10:01:46;;;;;;;;;;;;;;;26.35;32.39;99941.56;4430901;32;34172;-83
2023/05/27 10:04:20;;;;;;;;;;;;;;;26.84;31.81;99945.84;4430983;32;33332;-84
2023/05/27 10:06:52;;;;;;;;;;;;;;;26.53;31.86;99926.94;4416729;32;34052;-84
2023/05/27 10:09:20;;;;;;;;;;;;;;;26.91;31.22;99931.09;4443523;32;34047;-83
2023/05/27 10:11:49;;;;;;;;;;;;;;;27.16;31.20;99935.38;4425243;32;34137;-84
2023/05/27 10:14:18;;;;;;;;;;;;;;;26.88;32.03;99927.84;4431761;32;33016;-84
2023/05/27 10:16:54;;;;;;;;;;;;;;;26.43;32.67;99917.91;4429590;32;35396;-84
2023/05/27 10:19:23;;;;;;;;;;;;;;;26.57;32.97;99924.87;4429313;32;34283;-83
2023/05/27 10:21:52;;;;;;;;;;;;;;;26.26;33.07;99921.81;4426189;32;34484;-84
2023/05/27 10:24:31;;;;;;;;;;;;;;;26.33;33.39;99923.06;4442107;32;34045;-82
2023/05/27 10:27:01;;;;;;;;;;;;;;;26.49;32.94;99919.25;4422950;32;33999;-82
2023/05/27 10:29:36;;;;;;;;;;;;;;;26.34;31.83;99918.63;4431167;32;34351;-83
2023/05/27 10:32:06;;;;;;;;;;;;;;;26.29;32.15;99924.28;4420427;32;33904;-83
2023/05/27 10:34:35;;;;;;;;;;;;;;;26.53;32.25;99918.03;4422009;32;34081;-84
2023/05/27 10:37:06;;;;;;;;;;;;;;;26.60;32.97;99924.63;4431064;32;33687;-82
2023/05/27 10:39:35;;;;;;;;;;;;;;;26.16;33.39;99926.13;4431456;32;33662;-82
2023/05/27 10:42:05;;;;;;;;;;;;;;;25.91;33.96;99927.97;4429680;32;34412;-85
2023/05/27 10:44:36;;;;;;;;;;;;;;;26.38;32.71;99928.03;4433392;32;33187;-82
2023/05/27 10:47:10;;;;;;;;;;;;;;;26.24;33.26;99922.91;4437048;32;33523;-83
2023/05/27 10:49:39;;;;;;;;;;;;;;;26.38;31.74;99914.72;4431118;32;34028;-83
2023/05/27 10:52:10;;;;;;;;;;;;;;;26.27;33.52;99920.88;4435752;32;34504;-83
2023/05/27 10:54:40;;;;;;;;;;;;;;;26.42;31.96;99918.03;4434849;32;33024;-84
2023/05/27 10:57:08;;;;;;;;;;;;;;;26.17;31.88;99914.56;4424562;32;33620;-83
2023/05/27 10:59:40;;;;;;;;;;;;;;;26.74;31.30;99913.78;4426632;32;34098;-83
2023/05/27 11:02:10;;;;;;;;;;;;;;;26.71;31.44;99919.34;4426969;32;34327;-82
2023/05/27 11:04:40;;;;;;;;;;;;;;;25.79;33.02;99912.03;4430806;32;31836;-83
2023/05/27 11:07:08;;;;;;;;;;;;;;;26.67;32.07;99914.38;4432902;32;34222;-83
2023/05/27 11:09:43;;;;;;;;;;;;;;;26.52;32.37;99908.38;4431237;32;33989;-84
2023/05/27 11:12:16;;;;;;;;;;;;;;;27.15;31.38;99909.69;4430102;32;34487;-84
2023/05/27 11:14:44;;;;;;;;;;;;;;;27.47;30.66;99916.13;4429786;32;33847;-83
2023/05/27 11:17:14;;;;;;;;;;;;;;;27.70;30.50;99914.28;4438458;32;33612;-83
2023/05/27 11:19:44;;;;;;;;;;;;;;;27.22;31.51;99907.44;4432966;32;33570;-84
2023/05/27 11:22:13;;;;;;;;;;;;;;;27.51;30.83;99907.78;4434088;32;33834;-83
2023/05/27 11:24:41;;;;;;;;;;;;;;;27.41;31.06;99909.50;4438420;32;33691;-82
2023/05/27 11:27:13;;;;;;;;;;;;;;;27.79;30.65;99901.06;4431911;32;34692;-83
2023/05/27 11:29:49;;;;;;;;;;;;;;;27.77;30.68;99903.00;4441427;32;34662;-82
2023/05/27 11:32:19;;;;;;;;;;;;;;;28.38;29.39;99894.41;4433786;32;34990;-83
2023/05/27 11:34:48;;;;;;;;;;;;;;;28.24;29.10;99894.72;4428050;32;33445;-84
2023/05/27 11:37:16;;;;;;;;;;;;;;;28.11;29.79;99894.91;4431058;32;33936;-83
2023/05/27 11:39:51;;;;;;;;;;;;;;;27.88;30.36;99899.47;4433399;32;34611;-82
2023/05/27 11:42:24;;;;;;;;;;;;;;;28.75;27.45;99898.47;4431418;32;34797;-83
2023/05/27 11:44:53;;;;;;;;;;;;;;;28.18;29.16;99900.59;4431129;32;33024;-82
2023/05/27 11:47:23;;;;;;;;;;;;;;;27.23;30.57;99902.00;4436963;32;34160;-81
2023/05/27 11:49:52;;;;;;;;;;;;;;;27.36;30.38;99901.03;4426514;32;35089;-82
2023/05/27 11:52:25;;;;;;;;;;;;;;;26.86;31.05;99890.69;4436035;32;33912;-81
2023/05/27 11:54:53;;;;;;;;;;;;;;;27.37;29.53;99889.38;4427381;32;33800;-82
2023/05/27 11:57:27;;;;;;;;;;;;;;;27.47;30.93;99895.66;4433437;32;34389;-82
2023/05/27 11:59:56;;;;;;;;;;;;;;;27.66;30.85;99893.19;4429649;32;33409;-83
2023/05/27 12:02:35;;;;;;;;;;;;;;;27.33;31.88;99887.91;4436478;32;34653;-83
2023/05/27 12:05:06;;;;;;;;;;;;;;;27.24;30.45;99885.03;4437457;32;34103;-82
2023/05/27 12:07:40;;;;;;;;;;;;;;;26.94;31.58;99882.09;4433092;32;33040;-82
2023/05/27 12:10:09;;;;;;;;;;;;;;;27.08;31.60;99881.00;4424873;32;33579;-82
2023/05/27 12:12:41;;;;;;;;;;;;;;;27.57;30.37;99874.44;4432829;32;33020;-82
2023/05/27 12:15:10;;;;;;;;;;;;;;;28.04;30.40;99867.06;4434794;32;32297;-82
2023/05/27 12:17:40;;;;;;;;;;;;;;;28.31;28.99;99866.56;4432579;32;33838;-83
2023/05/27 12:20:09;;;;;;;;;;;;;;;27.71;30.21;99870.66;4432305;32;34440;-83
2023/05/27 12:22:38;;;;;;;;;;;;;;;27.36;30.64;99879.72;4426925;32;33866;-84
2023/05/27 12:25:11;;;;;;;;;;;;;;;26.81;31.70;99872.41;4433127;32;33765;-83
2023/05/27 12:27:40;;;;;;;;;;;;;;;27.65;29.74;99864.03;4440582;32;34691;-82
2023/05/27 12:30:09;;;;;;;;;;;;;;;27.72;29.44;99869.69;4428188;32;33734;-82
2023/05/27 12:32:39;;;;;;;;;;;;;;;27.42;30.49;99868.53;4433496;32;32999;-82
2023/05/27 12:35:09;;;;;;;;;;;;;;;27.70;29.92;99868.97;4414335;32;32675;-82
2023/05/27 12:37:38;;;;;;;;;;;;;;;27.35;30.44;99857.56;4419125;32;33337;-83
2023/05/27 12:40:09;;;;;;;;;;;;;;;27.74;29.72;99862.41;4416156;32;33532;-82
2023/05/27 12:42:38;;;;;;;;;;;;;;;27.11;29.82;99854.13;4414532;32;34215;-83
2023/05/27 12:45:07;;;;;;;;;;;;;;;28.27;29.27;99849.09;4423403;32;33284;-82
2023/05/27 12:47:35;;;;;;;;;;;;;;;27.97;31.46;99845.38;4431519;32;35153;-83
2023/05/27 12:50:09;;;;;;;;;;;;;;;27.61;33.05;99855.41;4435199;32;35113;-83
2023/05/27 12:52:38;;;;;;;;;;;;;;;27.37;34.12;99852.91;4429722;32;33747;-84
2023/05/27 12:55:08;;;;;;;;;;;;;;;27.01;34.78;99854.00;4429545;32;32924;-82
2023/05/27 12:57:36;;;;;;;;;;;;;;;26.92;34.68;99850.28;4429972;32;33877;-82
2023/05/27 13:00:07;;;;;;;;;;;;;;;27.06;35.28;99851.00;4434911;32;33836;-83